Time;durP1;ratioP1;P1;durP2;ratioP2;P2;SDS_P1;SDS_P2;PMS_P1;PMS_P2;Temp;Humidity;BMP_temperature;BMP_pressure;BME280_temperature;BME280_humidity;BME280_pressure;Samples;Min_cycle;Max_cycle;Signal;HPM_P1;HPM_P2
2021/05/01 00:02:16;;;;;;;32.30;24.30;;;;;;;6.88;89.28;95361.22;5032188;28;20045;-49
2021/05/01 00:04:43;;;;;;;26.40;21.13;;;;;;;6.94;88.65;95368.00;5033548;28;20430;-48
2021/05/01 00:07:10;;;;;;;34.95;25.05;;;;;;;7.33;87.59;95374.16;5031711;28;20465;-49
2021/05/01 00:09:37;;;;;;;29.42;22.58;;;;;;;6.71;89.14;95378.22;5033517;28;20374;-49
2021/05/01 00:12:04;;;;;;;31.70;23.52;;;;;;;7.03;88.76;95376.84;5033419;28;20060;-49
2021/05/01 00:14:31;;;;;;;29.60;22.08;;;;;;;6.87;89.39;95377.69;5033296;28;20050;-51
2021/05/01 00:16:57;;;;;;;25.88;20.70;;;;;;;6.83;88.81;95382.94;5019428;28;20225;-50
2021/05/01 00:19:24;;;;;;;32.38;24.20;;;;;;;7.00;88.60;95369.41;5038869;28;20057;-48
2021/05/01 00:21:50;;;;;;;32.40;23.88;;;;;;;7.33;88.11;95354.53;5031981;28;20050;-46
2021/05/01 00:24:17;;;;;;;37.40;26.77;;;;;;;7.05;88.37;95338.84;5033023;28;20053;-46
2021/05/01 00:26:43;;;;;;;34.50;26.23;;;;;;;6.95;87.87;95341.91;5019993;28;20201;-46
2021/05/01 00:29:11;;;;;;;36.60;27.85;;;;;;;6.78;88.49;95350.81;5013455;28;20452;-51
2021/05/01 00:31:38;;;;;;;41.53;28.60;;;;;;;6.78;89.02;95345.44;5013131;28;20530;-48
2021/05/01 00:34:12;;;;;;;40.35;28.83;;;;;;;6.51;89.62;95355.50;5019818;28;20108;-47
2021/05/01 00:36:38;;;;;;;38.53;27.23;;;;;;;6.65;89.84;95352.59;5026257;28;20049;-49
2021/05/01 00:39:05;;;;;;;38.38;27.05;;;;;;;6.96;88.60;95341.59;5012804;28;20418;-47
2021/05/01 00:41:32;;;;;;;38.28;27.15;;;;;;;6.81;88.51;95342.13;5021562;28;20041;-47
2021/05/01 00:44:02;;;;;;;36.65;25.77;;;;;;;6.57;89.42;95345.38;5032467;28;20078;-49
2021/05/01 00:46:28;;;;;;;39.05;28.85;;;;;;;6.54;89.30;95348.69;5018920;28;20057;-46
2021/05/01 00:48:55;;;;;;;42.20;29.17;;;;;;;6.80;88.93;95354.00;5012798;28;20085;-46
2021/05/01 00:51:21;;;;;;;35.85;26.20;;;;;;;6.52;88.03;95359.75;5013715;28;20065;-47
2021/05/01 00:53:48;;;;;;;31.83;23.92;;;;;;;6.53;88.22;95355.97;5029903;28;20053;-48
2021/05/01 00:56:15;;;;;;;36.97;26.25;;;;;;;7.09;86.90;95353.25;5017172;28;20046;-51
2021/05/01 00:58:42;;;;;;;35.40;26.58;;;;;;;6.76;87.15;95348.47;5026905;28;20579;-50
2021/05/01 01:03:39;;;;;;;39.75;28.40;;;;;;;6.43;88.83;95339.38;5032404;28;20057;-52
2021/05/01 01:06:07;;;;;;;37.58;26.85;;;;;;;6.47;87.49;95334.97;5032177;28;20167;-50
2021/05/01 01:08:34;;;;;;;36.20;25.63;;;;;;;6.63;87.16;95337.91;5013665;28;20050;-50
2021/05/01 01:11:01;;;;;;;38.08;27.60;;;;;;;6.95;86.57;95333.84;5012369;28;20728;-50
2021/05/01 01:13:28;;;;;;;37.22;26.67;;;;;;;6.89;85.90;95329.75;5012247;28;20053;-50
2021/05/01 01:15:55;;;;;;;34.60;25.75;;;;;;;6.84;85.85;95332.63;5011738;28;20053;-50
2021/05/01 01:18:21;;;;;;;35.72;27.42;;;;;;;6.97;86.82;95328.94;5024605;28;20060;-51
2021/05/01 01:20:48;;;;;;;40.47;28.65;;;;;;;6.70;88.19;95330.16;5025724;28;20050;-53
2021/05/01 01:23:15;;;;;;;42.85;30.38;;;;;;;6.69;87.11;95340.09;5025461;28;20072;-49
2021/05/01 01:25:41;;;;;;;55.00;39.78;;;;;;;6.95;87.12;95339.22;5029168;28;20160;-48
2021/05/01 01:28:08;;;;;;;46.33;32.80;;;;;;;7.19;85.29;95338.63;5035541;28;20057;-49
2021/05/01 01:30:35;;;;;;;43.33;30.25;;;;;;;6.89;86.59;95340.50;5035801;28;20053;-50
2021/05/01 01:33:07;;;;;;;45.00;30.90;;;;;;;6.93;86.41;95336.84;5031212;28;20046;-50
2021/05/01 01:35:35;;;;;;;42.30;30.93;;;;;;;6.67;85.91;95339.66;5024641;28;20077;-51
2021/05/01 01:38:04;;;;;;;44.05;31.02;;;;;;;6.68;86.77;95341.22;5045844;28;20057;-50
2021/05/01 01:40:31;;;;;;;42.97;30.85;;;;;;;6.61;86.88;95346.31;5027877;28;20077;-50
2021/05/01 01:42:58;;;;;;;45.58;32.08;;;;;;;6.39;87.27;95349.19;5020468;28;20073;-49
2021/05/01 01:45:27;;;;;;;50.60;33.20;;;;;;;6.24;88.48;95350.47;5026425;28;20050;-51
2021/05/01 01:47:56;;;;;;;44.63;31.90;;;;;;;6.21;88.38;95351.94;5023981;28;20077;-50
2021/05/01 01:50:23;;;;;;;52.10;34.28;;;;;;;6.60;87.67;95347.41;5030370;28;20060;-50
2021/05/01 01:53:06;;;;;;;47.60;31.95;;;;;;;6.83;87.25;95347.97;5028118;28;20457;-51
2021/05/01 01:55:35;;;;;;;49.20;32.80;;;;;;;7.06;85.56;95353.88;5031501;28;20132;-49
2021/05/01 01:58:01;;;;;;;43.67;29.90;;;;;;;7.01;86.55;95356.75;5017751;28;20065;-51
2021/05/01 02:00:30;;;;;;;48.28;32.67;;;;;;;7.18;85.44;95351.31;5021409;28;20421;-51
2021/05/01 02:02:57;;;;;;;43.45;30.25;;;;;;;6.71;85.39;95354.00;5029223;28;20049;-52
2021/05/01 02:05:24;;;;;;;43.00;29.83;;;;;;;6.90;86.11;95355.53;5028448;28;20060;-50
2021/05/01 02:07:54;;;;;;;46.05;31.08;;;;;;;7.12;85.15;95346.44;5019615;28;20111;-49
2021/05/01 02:10:29;;;;;;;43.38;29.65;;;;;;;6.92;85.86;95347.91;5030106;28;20104;-48
2021/05/01 02:12:56;;;;;;;42.17;29.02;;;;;;;6.90;85.21;95347.47;5029725;28;20142;-49
2021/05/01 02:15:23;;;;;;;41.30;29.63;;;;;;;6.84;85.40;95348.75;5026225;28;20053;-50
2021/05/01 02:17:57;;;;;;;44.58;30.40;;;;;;;6.99;86.07;95348.22;5013932;28;20060;-50
2021/05/01 02:20:27;;;;;;;44.08;31.27;;;;;;;7.01;85.11;95349.47;5010601;28;20057;-51
2021/05/01 02:23:10;;;;;;;44.25;30.52;;;;;;;7.15;84.37;95348.44;5011358;28;20045;-50
2021/05/01 02:25:42;;;;;;;42.63;30.27;;;;;;;6.95;84.19;95340.00;5013503;28;20388;-52
2021/05/01 02:28:08;;;;;;;42.58;29.90;;;;;;;6.72;84.96;95328.69;5018431;28;20045;-52
2021/05/01 02:30:35;;;;;;;45.13;30.45;;;;;;;6.82;85.73;95326.78;5013442;28;20054;-52
2021/05/01 02:33:02;;;;;;;46.25;31.45;;;;;;;6.86;85.38;95325.81;5031638;28;20100;-53
2021/05/01 02:35:31;;;;;;;47.80;32.10;;;;;;;6.57;87.10;95323.88;5025587;28;20053;-50
2021/05/01 02:37:58;;;;;;;51.33;34.40;;;;;;;6.36;88.80;95325.66;5028941;28;20057;-50
2021/05/01 02:40:30;;;;;;;54.25;34.13;;;;;;;6.60;88.73;95330.47;5032063;28;20069;-54
2021/05/01 02:43:08;;;;;;;50.95;33.10;;;;;;;6.70;87.54;95330.94;5031296;28;20053;-53
2021/05/01 02:45:34;;;;;;;52.33;34.92;;;;;;;6.38;88.16;95332.28;5013228;28;20049;-53
2021/05/01 02:48:03;;;;;;;61.17;36.75;;;;;;;6.31;89.53;95332.00;5011772;28;20052;-51
2021/05/01 02:50:30;;;;;;;53.92;35.45;;;;;;;6.53;89.00;95326.41;5013770;28;20050;-52
2021/05/01 02:52:56;;;;;;;49.88;33.42;;;;;;;6.76;88.13;95324.28;5025337;28;20042;-54
2021/05/01 02:55:23;;;;;;;50.00;33.90;;;;;;;6.77;87.79;95328.53;5031927;28;20045;-51
2021/05/01 02:57:51;;;;;;;54.33;35.55;;;;;;;6.41;88.71;95322.81;5026650;28;20062;-54
2021/05/01 03:00:22;;;;;;;58.85;37.15;;;;;;;6.29;89.76;95324.25;5035332;28;20469;-48
2021/05/01 03:02:52;;;;;;;58.40;36.35;;;;;;;6.37;89.79;95337.97;5036908;28;20109;-46
2021/05/01 03:05:19;;;;;;;56.45;36.38;;;;;;;6.37;89.43;95340.66;5035454;28;20128;-49
2021/05/01 03:07:46;;;;;;;55.00;35.80;;;;;;;6.53;89.09;95345.22;5027080;28;20100;-52
2021/05/01 03:10:19;;;;;;;58.30;37.22;;;;;;;6.33;89.68;95341.28;5018874;28;20058;-49
2021/05/01 03:12:45;;;;;;;57.35;34.90;;;;;;;6.26;90.08;95324.09;5037574;28;20056;-47
2021/05/01 03:15:13;;;;;;;54.25;35.00;;;;;;;6.67;89.68;95331.59;5030309;28;20050;-50
2021/05/01 03:17:40;;;;;;;53.03;34.95;;;;;;;6.67;89.63;95320.81;5036328;28;20053;-50
2021/05/01 03:20:08;;;;;;;55.42;36.38;;;;;;;7.17;87.91;95303.97;5036766;28;20086;-50
2021/05/01 03:22:35;;;;;;;57.47;36.20;;;;;;;7.46;85.78;95299.69;5035231;28;20046;-51
2021/05/01 03:25:02;;;;;;;51.20;35.13;;;;;;;7.48;83.58;95298.25;5031781;28;20054;-47
2021/05/01 03:27:29;;;;;;;49.80;34.63;;;;;;;7.18;84.42;95304.75;5016338;28;20081;-48
2021/05/01 03:29:55;;;;;;;53.28;34.97;;;;;;;7.03;85.36;95298.84;5032179;28;20446;-50
2021/05/01 03:32:22;;;;;;;54.03;34.35;;;;;;;7.03;85.29;95292.66;5036899;28;20100;-50
2021/05/01 03:34:48;;;;;;;52.42;34.80;;;;;;;6.99;87.45;95294.44;5036319;28;20045;-47
2021/05/01 03:37:15;;;;;;;48.78;33.17;;;;;;;7.11;85.97;95293.72;5033619;28;20515;-51
2021/05/01 03:39:42;;;;;;;48.83;33.15;;;;;;;7.14;85.10;95287.69;5033585;28;20049;-48
2021/05/01 03:42:08;;;;;;;56.55;37.50;;;;;;;6.98;85.71;95284.78;5033515;28;20057;-48
2021/05/01 03:44:35;;;;;;;56.25;36.78;;;;;;;6.95;86.18;95274.66;5030952;28;20046;-47
2021/05/01 03:47:02;;;;;;;53.28;34.72;;;;;;;6.77;88.40;95269.38;5032604;28;20042;-50
2021/05/01 03:49:29;;;;;;;53.25;33.92;;;;;;;7.31;85.91;95270.66;5032775;28;20137;-46
2021/05/01 03:51:56;;;;;;;56.25;35.70;;;;;;;6.88;86.78;95279.78;5025308;28;20053;-50
2021/05/01 03:54:22;;;;;;;54.38;35.88;;;;;;;6.98;86.28;95271.31;5018915;28;20072;-48
2021/05/01 03:56:50;;;;;;;63.15;39.10;;;;;;;6.71;87.80;95275.25;5032040;28;20514;-50
2021/05/01 03:59:16;;;;;;;63.67;38.55;;;;;;;6.90;87.49;95266.81;5019415;28;20061;-47
2021/05/01 04:01:43;;;;;;;55.35;36.38;;;;;;;6.93;87.40;95266.94;5033231;28;20057;-49
2021/05/01 04:04:10;;;;;;;62.58;38.53;;;;;;;7.31;86.19;95268.75;5032491;28;20567;-53
2021/05/01 04:06:37;;;;;;;59.55;37.75;;;;;;;7.56;85.27;95260.81;5025078;28;20071;-48
2021/05/01 04:09:05;;;;;;;53.10;35.15;;;;;;;7.44;86.68;95259.66;5016024;28;20184;-49
2021/05/01 04:11:32;;;;;;;54.88;34.95;;;;;;;7.60;84.96;95261.72;5031763;28;20057;-47
2021/05/01 04:13:58;;;;;;;62.28;37.78;;;;;;;7.23;87.81;95265.00;5031018;28;20041;-50
2021/05/01 04:16:25;;;;;;;56.83;37.10;;;;;;;7.02;89.59;95261.50;5018545;28;20045;-50
2021/05/01 04:18:52;;;;;;;51.60;34.25;;;;;;;7.71;86.01;95258.31;5012163;28;20050;-48
2021/05/01 04:21:19;;;;;;;53.05;34.20;;;;;;;7.10;89.28;95255.28;5013340;28;20058;-51
2021/05/01 04:23:45;;;;;;;57.80;35.67;;;;;;;7.45;86.67;95249.66;5017607;28;21318;-54
2021/05/01 04:26:12;;;;;;;60.90;37.83;;;;;;;7.71;85.27;95260.22;5032992;28;20099;-51
2021/05/01 04:28:39;;;;;;;58.55;36.97;;;;;;;7.35;87.71;95266.22;5029636;28;20519;-51
2021/05/01 04:31:05;;;;;;;60.97;37.20;;;;;;;7.46;88.54;95270.06;5032792;28;20469;-50
2021/05/01 04:33:32;;;;;;;53.20;36.00;;;;;;;7.51;87.46;95283.34;5031971;28;20111;-51
2021/05/01 04:35:59;;;;;;;55.25;35.83;;;;;;;7.52;86.26;95281.44;5024247;28;20050;-51
2021/05/01 04:38:26;;;;;;;54.15;35.25;;;;;;;7.58;84.93;95280.13;5031047;28;20053;-50
2021/05/01 04:40:52;;;;;;;50.50;34.63;;;;;;;7.57;85.54;95281.22;5031391;28;20053;-51
2021/05/01 04:43:25;;;;;;;54.92;35.67;;;;;;;7.16;89.09;95285.47;5031087;28;20061;-54
2021/05/01 04:45:53;;;;;;;49.42;32.33;;;;;;;6.99;90.41;95278.31;5013923;28;20050;-52
2021/05/01 04:48:21;;;;;;;48.35;31.95;;;;;;;7.20;90.97;95283.72;5031710;28;20085;-52
2021/05/01 04:50:51;;;;;;;48.45;33.88;;;;;;;7.48;89.26;95294.78;5031666;28;20049;-51
2021/05/01 04:53:19;;;;;;;52.47;34.40;;;;;;;8.00;83.61;95307.81;5032382;28;20045;-47
2021/05/01 04:55:46;;;;;;;52.47;33.88;;;;;;;7.33;85.27;95290.75;5030925;28;20148;-49
2021/05/01 04:58:12;;;;;;;51.85;33.35;;;;;;;7.08;88.31;95294.38;5016416;28;20510;-52
2021/05/01 05:00:39;;;;;;;50.53;34.40;;;;;;;7.62;86.16;95292.59;5029554;28;20057;-49
2021/05/01 05:03:06;;;;;;;47.92;33.58;;;;;;;7.91;83.63;95307.09;5031809;28;20061;-53
2021/05/01 05:05:37;;;;;;;57.28;35.15;;;;;;;7.97;83.50;95303.88;5019731;28;20058;-52
2021/05/01 05:08:05;;;;;;;51.78;34.25;;;;;;;7.80;84.39;95303.22;5011503;28;20137;-52
2021/05/01 05:10:31;;;;;;;48.85;33.78;;;;;;;7.37;87.59;95315.09;5026695;28;20053;-50
2021/05/01 05:12:58;;;;;;;47.20;32.67;;;;;;;7.61;87.27;95298.31;5032010;28;20076;-50
2021/05/01 05:15:24;;;;;;;47.33;32.00;;;;;;;7.87;84.16;95282.75;5026005;28;20588;-52
2021/05/01 05:17:51;;;;;;;51.45;35.22;;;;;;;7.83;86.34;95289.09;5030160;28;20077;-51
2021/05/01 05:20:17;;;;;;;51.28;33.83;;;;;;;8.18;83.92;95294.97;5030782;28;20084;-51
2021/05/01 05:22:44;;;;;;;54.85;35.30;;;;;;;8.25;82.35;95281.72;5030940;28;20077;-51
2021/05/01 05:25:12;;;;;;;51.25;34.33;;;;;;;8.22;82.06;95268.13;5030199;28;20096;-49
2021/05/01 05:27:38;;;;;;;45.13;32.50;;;;;;;7.98;83.33;95266.94;5021586;28;20053;-49
2021/05/01 05:30:06;;;;;;;48.65;33.60;;;;;;;8.22;82.39;95274.31;5023552;28;20054;-49
2021/05/01 05:32:32;;;;;;;48.72;33.40;;;;;;;8.15;82.16;95274.84;5029632;28;20046;-47
2021/05/01 05:34:59;;;;;;;49.00;33.50;;;;;;;7.68;86.71;95271.66;5026534;28;20135;-47
2021/05/01 05:37:25;;;;;;;42.85;30.55;;;;;;;7.97;86.19;95268.06;5031030;28;20697;-49
2021/05/01 05:39:53;;;;;;;44.30;31.48;;;;;;;7.80;87.35;95265.53;5019763;28;20054;-49
2021/05/01 05:42:21;;;;;;;44.70;31.83;;;;;;;7.99;85.79;95268.50;5011524;28;20046;-49
2021/05/01 05:44:49;;;;;;;44.95;31.65;;;;;;;8.48;84.72;95273.28;5022022;28;20422;-50
2021/05/01 05:47:17;;;;;;;49.42;33.58;;;;;;;8.49;83.20;95261.38;5030576;28;20076;-52
2021/05/01 05:49:45;;;;;;;43.45;30.83;;;;;;;8.88;81.92;95258.03;5030053;28;20051;-50
2021/05/01 05:52:12;;;;;;;46.92;31.98;;;;;;;8.62;83.69;95255.66;5028973;28;20064;-53
2021/05/01 05:54:39;;;;;;;41.65;30.58;;;;;;;8.49;84.56;95247.91;5030414;28;20049;-50
2021/05/01 05:57:10;;;;;;;41.05;31.35;;;;;;;8.79;83.74;95254.66;5027268;28;20078;-51
2021/05/01 05:59:39;;;;;;;;;;;;;;;8.19;85.17;95240.75;5029684;28;20049;-51
2021/05/01 06:02:06;;;;;;;39.58;29.15;;;;;;;8.51;84.45;95232.16;5030679;28;19976;-50
2021/05/01 06:04:40;;;;;;;40.67;29.63;;;;;;;8.86;81.19;95240.63;5022662;28;20507;-51
2021/05/01 06:07:19;;;;;;;41.05;29.83;;;;;;;8.30;84.76;95245.72;5010520;28;20088;-54
2021/05/01 06:09:47;;;;;;;43.67;29.98;;;;;;;8.20;85.19;95236.16;5019212;28;20072;-50
2021/05/01 06:12:17;;;;;;;39.33;29.20;;;;;;;8.06;84.65;95235.63;5029090;28;20466;-50
2021/05/01 06:14:45;;;;;;;40.47;29.88;;;;;;;8.06;86.25;95230.25;5029351;28;20057;-51
2021/05/01 06:17:15;;;;;;;39.72;29.02;;;;;;;8.75;82.49;95228.72;5027828;28;20049;-49
2021/05/01 06:19:42;;;;;;;39.30;29.63;;;;;;;8.82;83.37;95228.94;5030002;28;20049;-52
2021/05/01 06:22:10;;;;;;;42.08;30.08;;;;;;;8.76;83.39;95219.50;5030001;28;20053;-52
2021/05/01 06:24:38;;;;;;;40.28;29.13;;;;;;;8.77;83.09;95216.44;5019639;28;20057;-54
2021/05/01 06:27:05;;;;;;;37.90;28.73;;;;;;;9.01;83.14;95220.28;5024423;28;21030;-51
2021/05/01 06:29:37;;;;;;;39.40;28.80;;;;;;;9.17;81.02;95217.66;5017671;28;20050;-51
2021/05/01 06:32:10;;;;;;;38.72;28.38;;;;;;;8.83;79.75;95214.31;5031166;28;20053;-47
2021/05/01 06:34:38;;;;;;;42.47;29.65;;;;;;;9.04;80.11;95217.69;5031016;28;20076;-47
2021/05/01 06:37:06;;;;;;;43.35;30.20;;;;;;;8.83;81.49;95217.00;5028775;28;20120;-54
2021/05/01 06:39:36;;;;;;;36.08;27.80;;;;;;;8.83;83.60;95211.63;5029753;28;20053;-46
2021/05/01 06:42:05;;;;;;;37.65;28.55;;;;;;;9.20;80.16;95214.28;5030765;28;20072;-47
2021/05/01 06:44:40;;;;;;;41.55;30.55;;;;;;;8.86;83.98;95219.03;5025177;28;20053;-51
2021/05/01 06:47:10;;;;;;;39.97;29.60;;;;;;;9.48;79.66;95217.78;5028836;28;20049;-51
2021/05/01 06:49:50;;;;;;;38.58;28.20;;;;;;;8.98;83.46;95220.94;5030273;28;20484;-52
2021/05/01 06:52:17;;;;;;;36.53;28.02;;;;;;;9.14;83.31;95216.44;5029006;28;20061;-50
2021/05/01 06:54:50;;;;;;;36.75;28.58;;;;;;;9.30;80.38;95235.41;5025406;28;20511;-48
2021/05/01 06:57:21;;;;;;;35.30;27.13;;;;;;;9.18;81.54;95246.22;5027810;28;20061;-46
2021/05/01 06:59:52;;;;;;;35.03;26.67;;;;;;;9.13;80.65;95248.03;5029508;28;20045;-48
2021/05/01 07:02:24;;;;;;;35.53;27.23;;;;;;;9.68;80.44;95231.47;5029474;28;20119;-48
2021/05/01 07:04:52;;;;;;;31.35;24.13;;;;;;;9.74;79.27;95240.91;5028172;28;20163;-51
2021/05/01 07:07:23;;;;;;;33.97;26.63;;;;;;;9.86;76.89;95248.97;5010101;28;20482;-54
2021/05/01 07:10:00;;;;;;;33.95;25.88;;;;;;;9.85;76.32;95252.81;5020195;28;20056;-51
2021/05/01 07:12:28;;;;;;;37.28;27.20;;;;;;;9.68;80.54;95253.84;5029206;28;20041;-47
2021/05/01 07:14:58;;;;;;;35.70;26.67;;;;;;;9.76;80.01;95244.03;5022870;28;20057;-48
2021/05/01 07:17:28;;;;;;;33.47;25.83;;;;;;;10.19;76.69;95229.75;5028476;28;20096;-51
2021/05/01 07:19:55;;;;;;;35.58;26.67;;;;;;;10.26;75.54;95224.56;5030039;28;20438;-48
2021/05/01 07:22:28;;;;;;;38.45;28.58;;;;;;;9.90;76.56;95225.53;5019520;28;20136;-47
2021/05/01 07:24:55;;;;;;;34.67;26.45;;;;;;;9.93;77.59;95235.63;5029753;28;20049;-47
2021/05/01 07:27:40;;;;;;;34.83;26.67;;;;;;;10.23;74.67;95232.56;5027804;28;20434;-47
2021/05/01 07:30:19;;;;;;;35.05;25.90;;;;;;;10.33;75.35;95242.88;5026850;28;20084;-48
2021/05/01 07:33:25;;;;;;;32.13;24.92;;;;;;;10.17;77.71;95221.22;5028183;28;20417;-49
2021/05/01 07:35:55;;;;;;;31.02;24.50;;;;;;;10.60;74.79;95224.25;5030107;28;20046;-50
2021/05/01 07:38:24;;;;;;;32.78;24.90;;;;;;;10.31;74.56;95212.72;5037037;28;20048;-54
2021/05/01 07:40:52;;;;;;;30.10;23.23;;;;;;;10.02;74.72;95209.25;5032718;28;20065;-50
2021/05/01 07:43:21;;;;;;;28.40;22.23;;;;;;;10.29;76.27;95206.88;5042495;28;20055;-53
2021/05/01 07:45:52;;;;;;;27.77;21.08;;;;;;;10.40;77.94;95199.03;5040893;28;20413;-50
2021/05/01 07:48:20;;;;;;;27.23;21.23;;;;;;;10.41;76.62;95192.50;5046190;28;20583;-50
2021/05/01 07:50:47;;;;;;;26.00;20.80;;;;;;;10.75;72.23;95190.97;5019422;28;20061;-52
2021/05/01 07:53:15;;;;;;;27.67;19.98;;;;;;;10.72;74.50;95195.19;5041809;28;20091;-50
2021/05/01 07:55:42;;;;;;;23.75;18.10;;;;;;;10.80;70.85;95188.03;5043447;28;20049;-50
2021/05/01 07:58:09;;;;;;;22.90;17.52;;;;;;;11.16;71.64;95178.00;5019819;28;20054;-48
2021/05/01 08:00:36;;;;;;;23.67;18.67;;;;;;;11.27;69.70;95170.09;5039194;28;20465;-50
2021/05/01 08:03:04;;;;;;;24.20;18.73;;;;;;;10.87;73.33;95166.53;5038592;28;20110;-48
2021/05/01 08:05:31;;;;;;;21.58;17.25;;;;;;;10.73;71.19;95163.50;5034585;28;20059;-50
2021/05/01 08:07:59;;;;;;;22.92;17.63;;;;;;;10.78;72.09;95155.09;5040755;28;20076;-51
2021/05/01 08:10:39;;;;;;;20.75;18.13;;;;;;;10.66;71.27;95155.22;5048318;28;20056;-50
2021/05/01 08:13:06;;;;;;;22.42;18.05;;;;;;;10.52;75.71;95150.25;5029232;28;20782;-51
2021/05/01 08:15:40;;;;;;;22.20;18.08;;;;;;;10.50;74.15;95141.72;5047132;28;20487;-51
2021/05/01 08:18:08;;;;;;;22.77;17.52;;;;;;;10.87;72.25;95144.09;5050585;28;20426;-50
2021/05/01 08:20:35;;;;;;;21.00;17.70;;;;;;;10.71;74.66;95142.19;5036276;28;20530;-52
2021/05/01 08:23:03;;;;;;;22.52;18.00;;;;;;;10.56;75.59;95134.09;5032444;28;20046;-52
2021/05/01 08:25:29;;;;;;;20.58;16.95;;;;;;;10.58;71.94;95131.84;5044707;28;20108;-52
2021/05/01 08:27:56;;;;;;;20.85;16.10;;;;;;;10.38;74.51;95125.59;5029621;28;20053;-53
2021/05/01 08:30:23;;;;;;;18.35;14.25;;;;;;;10.49;73.64;95118.50;5043966;28;20049;-51
2021/05/01 08:32:50;;;;;;;19.52;15.63;;;;;;;10.83;72.63;95108.84;5041291;28;20115;-53
2021/05/01 08:35:17;;;;;;;20.58;16.88;;;;;;;10.94;74.50;95112.56;5035411;28;20053;-53
2021/05/01 08:37:45;;;;;;;17.52;14.05;;;;;;;11.21;72.00;95118.94;5026361;28;20041;-50
2021/05/01 08:40:13;;;;;;;20.63;16.55;;;;;;;11.28;70.23;95131.03;5030628;28;20232;-48
2021/05/01 08:42:45;;;;;;;19.13;15.50;;;;;;;11.36;70.36;95138.94;5050986;28;20083;-49
2021/05/01 08:45:14;;;;;;;17.20;13.52;;;;;;;10.99;71.09;95139.34;5034287;28;20058;-49
2021/05/01 08:47:46;;;;;;;17.48;14.10;;;;;;;11.51;70.61;95139.25;5029743;28;20053;-50
2021/05/01 08:50:26;;;;;;;17.35;13.48;;;;;;;11.52;71.82;95146.22;5018657;28;20093;-52
2021/05/01 08:52:53;;;;;;;16.45;13.63;;;;;;;11.77;67.72;95142.06;5021261;28;20057;-53
2021/05/01 08:55:34;;;;;;;18.10;14.50;;;;;;;11.38;68.54;95150.22;5034795;28;20506;-47
2021/05/01 08:58:03;;;;;;;16.33;13.77;;;;;;;10.99;72.38;95158.28;5024856;28;20050;-47
2021/05/01 09:00:31;;;;;;;18.52;15.05;;;;;;;11.45;70.76;95157.69;5023464;28;20053;-51
2021/05/01 09:03:02;;;;;;;19.58;15.23;;;;;;;11.59;68.01;95163.41;5024686;28;20128;-50
2021/05/01 09:05:29;;;;;;;18.30;15.48;;;;;;;11.46;71.75;95156.56;5028027;28;20053;-49
2021/05/01 09:07:57;;;;;;;19.65;15.63;;;;;;;11.52;70.07;95149.72;5027275;28;20045;-49
2021/05/01 09:10:24;;;;;;;20.85;16.23;;;;;;;12.29;69.36;95150.75;5017215;28;20061;-48
2021/05/01 09:12:51;;;;;;;18.88;15.10;;;;;;;12.50;68.74;95140.25;5022508;28;20049;-48
2021/05/01 09:15:23;;;;;;;34.80;16.15;;;;;;;12.39;70.39;95145.50;5021721;28;20057;-47
2021/05/01 09:18:05;;;;;;;16.65;13.90;;;;;;;13.09;62.70;95129.84;5029487;28;20071;-49
2021/05/01 09:20:33;;;;;;;17.08;14.18;;;;;;;12.74;65.81;95143.69;5029185;28;20060;-47
2021/05/01 09:23:11;;;;;;;15.75;12.90;;;;;;;12.28;68.24;95141.81;5029072;28;20484;-51
2021/05/01 09:26:00;;;;;;;16.40;14.02;;;;;;;12.07;66.62;95134.13;5030637;28;20049;-49
2021/05/01 09:28:39;;;;;;;18.98;14.88;;;;;;;11.68;72.14;95131.44;5024973;28;20057;-52
2021/05/01 09:31:12;;;;;;;17.33;14.10;;;;;;;11.56;70.90;95131.59;5016616;28;20141;-49
2021/05/01 09:33:41;;;;;;;16.00;13.65;;;;;;;11.76;71.63;95126.94;5011007;28;20049;-54
2021/05/01 09:36:16;;;;;;;19.13;13.95;;;;;;;11.57;72.08;95119.63;5012046;28;20076;-51
2021/05/01 09:38:45;;;;;;;18.75;15.20;;;;;;;12.25;67.05;95117.34;5023506;28;20060;-51
2021/05/01 09:41:24;;;;;;;18.48;14.73;;;;;;;11.58;69.05;95113.06;5027865;28;20139;-55
2021/05/01 09:44:07;;;;;;;17.58;14.18;;;;;;;11.24;70.46;95103.88;5028772;28;20517;-52
2021/05/01 09:46:37;;;;;;;17.40;13.55;;;;;;;11.24;70.62;95103.88;5033292;28;20525;-53
2021/05/01 09:49:17;;;;;;;19.00;14.85;;;;;;;11.36;69.81;95098.31;5023977;28;20058;-53
2021/05/01 09:51:50;;;;;;;18.33;14.57;;;;;;;11.59;69.84;95098.38;5046742;28;20057;-54
2021/05/01 09:54:38;;;;;;;19.33;15.55;;;;;;;10.99;73.09;95087.94;5046188;28;20080;-53
2021/05/01 09:57:17;;;;;;;17.95;14.68;;;;;;;11.07;72.16;95093.47;5026168;28;20054;-54
2021/05/01 09:59:53;;;;;;;18.42;15.23;;;;;;;11.16;72.17;95086.72;5028159;28;20423;-52
2021/05/01 10:02:34;;;;;;;16.42;13.23;;;;;;;11.16;71.27;95085.94;5030787;28;20088;-55
2021/05/01 10:05:05;;;;;;;18.88;14.48;;;;;;;11.44;69.55;95081.09;5029809;28;20061;-53
2021/05/01 10:07:39;;;;;;;17.83;14.20;;;;;;;11.48;69.65;95077.66;5012179;28;20064;-51
2021/05/01 10:10:06;;;;;;;18.58;15.35;;;;;;;11.13;71.06;95087.44;5022556;28;20075;-53
2021/05/01 10:12:41;;;;;;;19.05;14.35;;;;;;;11.34;71.54;95095.22;5028435;28;20144;-53
2021/05/01 10:15:24;;;;;;;18.13;14.70;;;;;;;11.36;70.98;95095.63;5027904;28;20049;-54
2021/05/01 10:18:11;;;;;;;18.10;15.25;;;;;;;11.66;68.47;95097.72;5029504;28;20045;-54
2021/05/01 10:20:43;;;;;;;19.15;15.80;;;;;;;11.71;69.45;95097.44;5031904;28;20067;-52
2021/05/01 10:23:12;;;;;;;18.27;14.82;;;;;;;11.12;72.46;95093.22;5025219;28;20041;-52
2021/05/01 10:25:40;;;;;;;17.20;14.98;;;;;;;11.23;70.55;95094.97;5025922;28;20064;-50
2021/05/01 10:28:16;;;;;;;18.13;15.18;;;;;;;11.37;69.67;95086.34;5020518;28;20579;-52
2021/05/01 10:30:52;;;;;;;20.75;14.88;;;;;;;11.05;71.56;95080.31;5019566;28;20057;-52
2021/05/01 10:33:34;;;;;;;17.15;14.38;;;;;;;11.30;70.57;95075.38;5028850;28;20439;-52
2021/05/01 10:36:14;;;;;;;16.95;14.57;;;;;;;11.68;68.96;95081.91;5030345;28;20064;-48
2021/05/01 10:38:42;;;;;;;17.45;14.50;;;;;;;11.57;70.90;95075.47;5024183;28;20518;-47
2021/05/01 10:41:19;;;;;;;20.02;15.63;;;;;;;11.41;72.51;95076.38;5025538;28;20132;-47
2021/05/01 10:43:53;;;;;;;18.42;15.27;;;;;;;11.71;68.34;95073.03;5023775;22;20352;-48
2021/05/01 10:46:35;;;;;;;18.27;15.18;;;;;;;11.85;69.10;95069.81;5009968;28;20053;-50
2021/05/01 10:49:07;;;;;;;16.83;14.65;;;;;;;11.65;71.51;95069.84;5013253;28;20438;-49
2021/05/01 10:51:50;;;;;;;18.67;14.95;;;;;;;11.77;70.31;95073.53;5008505;28;20057;-49
2021/05/01 10:54:19;;;;;;;17.52;14.77;;;;;;;12.29;68.69;95066.69;5002280;28;20055;-49
2021/05/01 10:56:51;;;;;;;18.33;15.18;;;;;;;11.68;70.40;95068.34;5010944;28;20065;-50
2021/05/01 10:59:19;;;;;;;19.88;16.02;;;;;;;11.76;71.11;95066.53;5019150;28;20064;-49
2021/05/01 11:01:49;;;;;;;17.75;15.40;;;;;;;12.05;68.56;95054.28;5013498;28;20054;-52
2021/05/01 11:04:26;;;;;;;17.77;15.18;;;;;;;12.11;67.77;95047.41;5023868;28;20137;-49
2021/05/01 11:07:02;;;;;;;20.75;17.23;;;;;;;12.02;67.44;95049.56;5017216;28;20058;-52
2021/05/01 11:09:41;;;;;;;19.15;15.80;;;;;;;11.78;70.90;95051.47;5011602;28;20057;-52
2021/05/01 11:12:19;;;;;;;20.10;16.58;;;;;;;12.10;71.09;95048.56;5011656;28;20054;-51
2021/05/01 11:15:09;;;;;;;18.85;16.23;;;;;;;12.24;68.91;95051.47;5007407;28;20109;-52
2021/05/01 11:17:41;;;;;;;19.50;15.60;;;;;;;12.29;67.88;95055.84;5010917;28;20060;-53
2021/05/01 11:20:16;;;;;;;20.17;15.18;;;;;;;12.12;66.85;95059.81;5013106;28;20050;-50
2021/05/01 11:22:45;;;;;;;18.90;14.90;;;;;;;12.00;68.71;95062.72;5012661;28;20045;-50
2021/05/01 11:25:16;;;;;;;20.20;15.57;;;;;;;11.59;71.32;95059.66;5011287;28;20050;-50
2021/05/01 11:27:46;;;;;;;19.50;16.67;;;;;;;11.94;68.52;95067.66;5010582;28;20529;-49
2021/05/01 11:30:16;;;;;;;18.15;14.93;;;;;;;11.95;67.99;95066.50;5012892;28;20046;-47
2021/05/01 11:32:43;;;;;;;20.48;15.95;;;;;;;11.87;70.27;95060.19;5010072;28;20053;-48
2021/05/01 11:35:13;;;;;;;18.38;14.85;;;;;;;11.77;69.92;95062.69;5007373;28;20053;-49
2021/05/01 11:37:49;;;;;;;17.85;14.32;;;;;;;11.81;69.54;95064.31;5007810;28;20588;-49